sensor_id;sensor_type;location;lat;lon;timestamp;pressure;altitude;pressure_sealevel;temperature;humidity
64616;BME280;51027;42.162;24.754;2023-05-20T00:00:10;99960.63;;;14.60;100.00
64616;BME280;51027;42.162;24.754;2023-05-20T00:02:35;99961.56;;;14.41;100.00
64616;BME280;51027;42.162;24.754;2023-05-20T00:05:01;99956.47;;;14.37;100.00
64616;BME280;51027;42.162;24.754;2023-05-20T00:07:27;99948.69;;;14.34;100.00
64616;BME280;51027;42.162;24.754;2023-05-20T00:09:52;99954.06;;;14.32;100.00
64616;BME280;51027;42.162;24.754;2023-05-20T00:12:17;99953.81;;;14.37;100.00
64616;BME280;51027;42.162;24.754;2023-05-20T00:14:43;99954.75;;;14.19;100.00
64616;BME280;51027;42.162;24.754;2023-05-20T00:17:08;99950.94;;;14.24;100.00
64616;BME280;51027;42.162;24.754;2023-05-20T00:19:34;99951.00;;;14.40;100.00
64616;BME280;51027;42.162;24.754;2023-05-20T00:21:59;99956.41;;;14.38;100.00
64616;BME280;51027;42.162;24.754;2023-05-20T00:24:25;99954.53;;;14.23;100.00
64616;BME280;51027;42.162;24.754;2023-05-20T00:26:51;99951.69;;;14.09;100.00
64616;BME280;51027;42.162;24.754;2023-05-20T00:29:17;99951.94;;;14.04;100.00
64616;BME280;51027;42.162;24.754;2023-05-20T00:31:42;99945.94;;;14.01;100.00
64616;BME280;51027;42.162;24.754;2023-05-20T00:34:08;99944.22;;;14.00;100.00
64616;BME280;51027;42.162;24.754;2023-05-20T00:36:34;99942.44;;;14.00;100.00
64616;BME280;51027;42.162;24.754;2023-05-20T00:39:00;99948.59;;;14.18;100.00
64616;BME280;51027;42.162;24.754;2023-05-20T00:41:25;99947.03;;;14.14;100.00
64616;BME280;51027;42.162;24.754;2023-05-20T00:43:54;99950.75;;;13.93;100.00
64616;BME280;51027;42.162;24.754;2023-05-20T00:46:21;99941.72;;;13.97;100.00
64616;BME280;51027;42.162;24.754;2023-05-20T00:48:46;99947.50;;;14.05;100.00
64616;BME280;51027;42.162;24.754;2023-05-20T00:51:12;99937.59;;;13.91;100.00
64616;BME280;51027;42.162;24.754;2023-05-20T00:53:38;99943.75;;;13.92;100.00
64616;BME280;51027;42.162;24.754;2023-05-20T00:56:05;99940.53;;;13.85;100.00
64616;BME280;51027;42.162;24.754;2023-05-20T00:58:30;99934.53;;;13.81;100.00
64616;BME280;51027;42.162;24.754;2023-05-20T01:00:56;99939.41;;;13.72;100.00
64616;BME280;51027;42.162;24.754;2023-05-20T01:03:22;99915.25;;;13.61;100.00
64616;BME280;51027;42.162;24.754;2023-05-20T01:05:48;99928.25;;;13.65;100.00
64616;BME280;51027;42.162;24.754;2023-05-20T01:08:13;99905.31;;;13.47;100.00
64616;BME280;51027;42.162;24.754;2023-05-20T01:10:42;99909.47;;;13.52;100.00
64616;BME280;51027;42.162;24.754;2023-05-20T01:13:14;99929.53;;;13.57;100.00
64616;BME280;51027;42.162;24.754;2023-05-20T01:15:40;99923.81;;;13.47;100.00
64616;BME280;51027;42.162;24.754;2023-05-20T01:18:07;99918.53;;;13.47;100.00
64616;BME280;51027;42.162;24.754;2023-05-20T01:20:35;99921.59;;;13.57;100.00
64616;BME280;51027;42.162;24.754;2023-05-20T01:23:01;99925.16;;;13.74;100.00
64616;BME280;51027;42.162;24.754;2023-05-20T01:25:27;99920.63;;;13.76;100.00
64616;BME280;51027;42.162;24.754;2023-05-20T01:27:54;99879.66;;;13.49;100.00
64616;BME280;51027;42.162;24.754;2023-05-20T01:30:22;99925.94;;;13.76;100.00
64616;BME280;51027;42.162;24.754;2023-05-20T01:32:54;99901.69;;;13.67;100.00
64616;BME280;51027;42.162;24.754;2023-05-20T01:35:22;99929.72;;;13.90;100.00
64616;BME280;51027;42.162;24.754;2023-05-20T01:37:48;99920.91;;;13.89;100.00
64616;BME280;51027;42.162;24.754;2023-05-20T01:40:15;99927.97;;;13.71;100.00
64616;BME280;51027;42.162;24.754;2023-05-20T01:42:42;99925.41;;;13.70;100.00
64616;BME280;51027;42.162;24.754;2023-05-20T01:45:08;99920.97;;;13.51;100.00
64616;BME280;51027;42.162;24.754;2023-05-20T01:47:34;99921.50;;;13.41;100.00
64616;BME280;51027;42.162;24.754;2023-05-20T01:49:59;99924.84;;;13.44;100.00
64616;BME280;51027;42.162;24.754;2023-05-20T01:52:25;99912.69;;;13.40;100.00
64616;BME280;51027;42.162;24.754;2023-05-20T01:54:50;99897.25;;;13.31;100.00
64616;BME280;51027;42.162;24.754;2023-05-20T01:57:18;99914.69;;;13.35;100.00
64616;BME280;51027;42.162;24.754;2023-05-20T01:59:43;99899.97;;;13.30;100.00
64616;BME280;51027;42.162;24.754;2023-05-20T02:02:09;99904.75;;;13.21;100.00
64616;BME280;51027;42.162;24.754;2023-05-20T02:04:34;99906.97;;;13.49;100.00
64616;BME280;51027;42.162;24.754;2023-05-20T02:07:00;99910.81;;;13.23;100.00
64616;BME280;51027;42.162;24.754;2023-05-20T02:09:27;99878.47;;;13.17;100.00
64616;BME280;51027;42.162;24.754;2023-05-20T02:11:52;99895.53;;;13.30;100.00
64616;BME280;51027;42.162;24.754;2023-05-20T02:14:18;99889.13;;;13.15;100.00
64616;BME280;51027;42.162;24.754;2023-05-20T02:16:45;99893.63;;;13.13;100.00
64616;BME280;51027;42.162;24.754;2023-05-20T02:19:10;99876.06;;;12.93;100.00
64616;BME280;51027;42.162;24.754;2023-05-20T02:21:39;99885.34;;;13.02;100.00
64616;BME280;51027;42.162;24.754;2023-05-20T02:24:04;99880.56;;;12.91;100.00
64616;BME280;51027;42.162;24.754;2023-05-20T02:26:30;99884.22;;;12.89;100.00
64616;BME280;51027;42.162;24.754;2023-05-20T02:28:56;99858.69;;;12.69;100.00
64616;BME280;51027;42.162;24.754;2023-05-20T02:31:21;99888.31;;;12.76;100.00
64616;BME280;51027;42.162;24.754;2023-05-20T02:33:47;99892.31;;;12.84;100.00
64616;BME280;51027;42.162;24.754;2023-05-20T02:36:12;99888.03;;;12.82;100.00
64616;BME280;51027;42.162;24.754;2023-05-20T02:38:38;99868.16;;;12.73;100.00
64616;BME280;51027;42.162;24.754;2023-05-20T02:41:03;99873.81;;;12.84;100.00
64616;BME280;51027;42.162;24.754;2023-05-20T02:43:29;99888.19;;;13.16;100.00
64616;BME280;51027;42.162;24.754;2023-05-20T02:45:56;99882.03;;;12.97;100.00
64616;BME280;51027;42.162;24.754;2023-05-20T02:48:21;99872.56;;;13.12;100.00
64616;BME280;51027;42.162;24.754;2023-05-20T02:50:46;99892.63;;;12.97;100.00
64616;BME280;51027;42.162;24.754;2023-05-20T02:53:12;99890.72;;;13.01;100.00
64616;BME280;51027;42.162;24.754;2023-05-20T02:55:39;99885.69;;;12.94;100.00
64616;BME280;51027;42.162;24.754;2023-05-20T02:58:04;99896.22;;;13.15;100.00
64616;BME280;51027;42.162;24.754;2023-05-20T03:00:30;99898.06;;;13.13;100.00
64616;BME280;51027;42.162;24.754;2023-05-20T03:02:56;99889.94;;;12.98;100.00
64616;BME280;51027;42.162;24.754;2023-05-20T03:05:21;99902.28;;;13.17;100.00
64616;BME280;51027;42.162;24.754;2023-05-20T03:07:47;99902.28;;;13.17;100.00
64616;BME280;51027;42.162;24.754;2023-05-20T03:10:13;99895.19;;;13.19;100.00
64616;BME280;51027;42.162;24.754;2023-05-20T03:12:38;99895.66;;;13.27;100.00
64616;BME280;51027;42.162;24.754;2023-05-20T03:15:04;99876.69;;;13.19;100.00
64616;BME280;51027;42.162;24.754;2023-05-20T03:17:30;99901.97;;;13.24;100.00
64616;BME280;51027;42.162;24.754;2023-05-20T03:19:55;99901.84;;;13.07;100.00
64616;BME280;51027;42.162;24.754;2023-05-20T03:22:21;99905.94;;;13.14;100.00
64616;BME280;51027;42.162;24.754;2023-05-20T03:24:46;99911.06;;;13.19;100.00
64616;BME280;51027;42.162;24.754;2023-05-20T03:27:12;99928.75;;;13.36;100.00
64616;BME280;51027;42.162;24.754;2023-05-20T03:29:38;99934.63;;;13.42;100.00
64616;BME280;51027;42.162;24.754;2023-05-20T03:32:03;99958.03;;;13.51;100.00
64616;BME280;51027;42.162;24.754;2023-05-20T03:34:29;99951.44;;;13.60;100.00
64616;BME280;51027;42.162;24.754;2023-05-20T03:36:54;99960.72;;;13.69;100.00
64616;BME280;51027;42.162;24.754;2023-05-20T03:39:21;99957.78;;;13.75;100.00
64616;BME280;51027;42.162;24.754;2023-05-20T03:41:46;99971.88;;;13.75;100.00
64616;BME280;51027;42.162;24.754;2023-05-20T03:44:12;99976.38;;;13.73;100.00
64616;BME280;51027;42.162;24.754;2023-05-20T03:46:37;99964.44;;;13.65;100.00
64616;BME280;51027;42.162;24.754;2023-05-20T03:49:03;99948.72;;;13.62;100.00
64616;BME280;51027;42.162;24.754;2023-05-20T03:51:29;99971.53;;;13.64;100.00
64616;BME280;51027;42.162;24.754;2023-05-20T03:53:55;99955.88;;;13.60;100.00
64616;BME280;51027;42.162;24.754;2023-05-20T03:56:20;99956.06;;;13.74;100.00
64616;BME280;51027;42.162;24.754;2023-05-20T03:58:46;99939.78;;;13.64;100.00
64616;BME280;51027;42.162;24.754;2023-05-20T04:01:11;99956.31;;;13.69;100.00
64616;BME280;51027;42.162;24.754;2023-05-20T04:03:38;99958.78;;;13.72;100.00
64616;BME280;51027;42.162;24.754;2023-05-20T04:06:04;99940.97;;;13.57;100.00
64616;BME280;51027;42.162;24.754;2023-05-20T04:08:29;99942.00;;;13.54;100.00
64616;BME280;51027;42.162;24.754;2023-05-20T04:10:56;99956.31;;;13.69;100.00
64616;BME280;51027;42.162;24.754;2023-05-20T04:13:21;99955.56;;;13.47;100.00
64616;BME280;51027;42.162;24.754;2023-05-20T04:15:49;99958.38;;;13.25;100.00
64616;BME280;51027;42.162;24.754;2023-05-20T04:18:15;99960.06;;;13.26;100.00
64616;BME280;51027;42.162;24.754;2023-05-20T04:20:41;99958.81;;;13.53;100.00
64616;BME280;51027;42.162;24.754;2023-05-20T04:23:06;99955.13;;;13.75;100.00
64616;BME280;51027;42.162;24.754;2023-05-20T04:25:32;99929.31;;;13.80;100.00
64616;BME280;51027;42.162;24.754;2023-05-20T04:27:58;99959.34;;;14.15;100.00
64616;BME280;51027;42.162;24.754;2023-05-20T04:30:24;99958.56;;;14.13;100.00
64616;BME280;51027;42.162;24.754;2023-05-20T04:32:50;99946.25;;;14.29;100.00
64616;BME280;51027;42.162;24.754;2023-05-20T04:35:15;99946.22;;;14.31;100.00
64616;BME280;51027;42.162;24.754;2023-05-20T04:37:41;99948.28;;;14.24;100.00
64616;BME280;51027;42.162;24.754;2023-05-20T04:40:09;99938.78;;;14.03;100.00
64616;BME280;51027;42.162;24.754;2023-05-20T04:42:34;99950.31;;;14.19;100.00
64616;BME280;51027;42.162;24.754;2023-05-20T04:45:00;99962.16;;;14.29;100.00
64616;BME280;51027;42.162;24.754;2023-05-20T04:47:30;99966.56;;;14.30;100.00
64616;BME280;51027;42.162;24.754;2023-05-20T04:49:56;99965.53;;;14.50;100.00
64616;BME280;51027;42.162;24.754;2023-05-20T04:52:25;99974.13;;;14.73;100.00
64616;BME280;51027;42.162;24.754;2023-05-20T04:54:53;99972.72;;;14.83;100.00
64616;BME280;51027;42.162;24.754;2023-05-20T04:57:22;99975.44;;;14.81;100.00
64616;BME280;51027;42.162;24.754;2023-05-20T04:59:49;99966.69;;;14.96;100.00
64616;BME280;51027;42.162;24.754;2023-05-20T05:02:15;99971.25;;;15.10;100.00
64616;BME280;51027;42.162;24.754;2023-05-20T05:04:40;99974.34;;;15.18;100.00
64616;BME280;51027;42.162;24.754;2023-05-20T05:07:05;99973.53;;;15.34;100.00
64616;BME280;51027;42.162;24.754;2023-05-20T05:09:31;99968.41;;;15.46;100.00
64616;BME280;51027;42.162;24.754;2023-05-20T05:11:56;99961.03;;;15.51;100.00
64616;BME280;51027;42.162;24.754;2023-05-20T05:14:22;99950.94;;;15.58;100.00
64616;BME280;51027;42.162;24.754;2023-05-20T05:16:48;99960.22;;;15.82;100.00
64616;BME280;51027;42.162;24.754;2023-05-20T05:19:13;99969.66;;;15.88;100.00
64616;BME280;51027;42.162;24.754;2023-05-20T05:21:39;99973.06;;;16.06;100.00
64616;BME280;51027;42.162;24.754;2023-05-20T05:24:04;99954.00;;;16.13;100.00
64616;BME280;51027;42.162;24.754;2023-05-20T05:26:30;99952.13;;;16.16;100.00
64616;BME280;51027;42.162;24.754;2023-05-20T05:28:55;99972.16;;;16.37;100.00
64616;BME280;51027;42.162;24.754;2023-05-20T05:31:21;99972.06;;;16.38;100.00
64616;BME280;51027;42.162;24.754;2023-05-20T05:33:46;99971.63;;;16.60;100.00
64616;BME280;51027;42.162;24.754;2023-05-20T05:36:11;99982.00;;;16.65;100.00
64616;BME280;51027;42.162;24.754;2023-05-20T05:38:37;99981.41;;;16.90;100.00
64616;BME280;51027;42.162;24.754;2023-05-20T05:41:02;99975.63;;;16.97;100.00
64616;BME280;51027;42.162;24.754;2023-05-20T05:43:28;99971.06;;;17.14;100.00
64616;BME280;51027;42.162;24.754;2023-05-20T05:45:53;99967.84;;;17.23;100.00
64616;BME280;51027;42.162;24.754;2023-05-20T05:48:19;99968.50;;;17.41;100.00
64616;BME280;51027;42.162;24.754;2023-05-20T05:50:45;99974.47;;;17.44;100.00
64616;BME280;51027;42.162;24.754;2023-05-20T05:53:11;99962.13;;;17.15;100.00
64616;BME280;51027;42.162;24.754;2023-05-20T05:55:36;99973.19;;;17.37;100.00
64616;BME280;51027;42.162;24.754;2023-05-20T05:58:02;99958.50;;;17.59;100.00
64616;BME280;51027;42.162;24.754;2023-05-20T06:00:27;99944.53;;;17.69;100.00
64616;BME280;51027;42.162;24.754;2023-05-20T06:02:53;99956.84;;;17.84;100.00
64616;BME280;51027;42.162;24.754;2023-05-20T06:05:18;99963.84;;;18.00;100.00
64616;BME280;51027;42.162;24.754;2023-05-20T06:07:43;99962.59;;;18.18;100.00
64616;BME280;51027;42.162;24.754;2023-05-20T06:10:09;99954.53;;;18.20;100.00
64616;BME280;51027;42.162;24.754;2023-05-20T06:12:35;99961.16;;;18.27;100.00
64616;BME280;51027;42.162;24.754;2023-05-20T06:15:00;99955.91;;;18.52;100.00
64616;BME280;51027;42.162;24.754;2023-05-20T06:17:26;99968.22;;;18.67;100.00
64616;BME280;51027;42.162;24.754;2023-05-20T06:19:51;99964.88;;;18.64;100.00
64616;BME280;51027;42.162;24.754;2023-05-20T06:22:16;99964.41;;;18.84;100.00
64616;BME280;51027;42.162;24.754;2023-05-20T06:24:42;99961.19;;;18.92;100.00
64616;BME280;51027;42.162;24.754;2023-05-20T06:27:07;99965.88;;;18.88;100.00
64616;BME280;51027;42.162;24.754;2023-05-20T06:29:33;99952.34;;;19.04;100.00
64616;BME280;51027;42.162;24.754;2023-05-20T06:31:58;99958.31;;;19.08;100.00
64616;BME280;51027;42.162;24.754;2023-05-20T06:34:24;99964.19;;;19.13;100.00
64616;BME280;51027;42.162;24.754;2023-05-20T06:36:49;99949.97;;;19.12;100.00
64616;BME280;51027;42.162;24.754;2023-05-20T06:39:15;99954.25;;;19.15;100.00
64616;BME280;51027;42.162;24.754;2023-05-20T06:41:40;99951.44;;;19.42;100.00
64616;BME280;51027;42.162;24.754;2023-05-20T06:44:06;99949.72;;;19.53;100.00
64616;BME280;51027;42.162;24.754;2023-05-20T06:46:33;99941.78;;;19.65;100.00
64616;BME280;51027;42.162;24.754;2023-05-20T06:48:58;99941.44;;;19.69;100.00
64616;BME280;51027;42.162;24.754;2023-05-20T06:51:24;99941.69;;;19.90;100.00
64616;BME280;51027;42.162;24.754;2023-05-20T06:53:49;99943.41;;;20.15;100.00
64616;BME280;51027;42.162;24.754;2023-05-20T06:56:15;99941.25;;;19.96;100.00
64616;BME280;51027;42.162;24.754;2023-05-20T06:58:40;99931.28;;;19.98;100.00
64616;BME280;51027;42.162;24.754;2023-05-20T07:01:06;99948.28;;;20.21;100.00
64616;BME280;51027;42.162;24.754;2023-05-20T07:03:31;99945.78;;;20.31;100.00
64616;BME280;51027;42.162;24.754;2023-05-20T07:05:57;99942.97;;;20.32;79.81
64616;BME280;51027;42.162;24.754;2023-05-20T07:08:23;99946.28;;;20.71;80.56
64616;BME280;51027;42.162;24.754;2023-05-20T07:10:48;99957.25;;;20.68;77.48
64616;BME280;51027;42.162;24.754;2023-05-20T07:13:14;99954.66;;;20.55;73.19
64616;BME280;51027;42.162;24.754;2023-05-20T07:15:39;99959.41;;;20.63;73.47
64616;BME280;51027;42.162;24.754;2023-05-20T07:18:05;99964.28;;;20.58;70.68
64616;BME280;51027;42.162;24.754;2023-05-20T07:20:30;99955.53;;;20.67;70.05
64616;BME280;51027;42.162;24.754;2023-05-20T07:22:56;99958.75;;;20.94;67.80
64616;BME280;51027;42.162;24.754;2023-05-20T07:25:21;99955.97;;;21.07;65.88
64616;BME280;51027;42.162;24.754;2023-05-20T07:27:47;99957.09;;;21.16;68.95
64616;BME280;51027;42.162;24.754;2023-05-20T07:30:12;99939.66;;;21.10;69.95
64616;BME280;51027;42.162;24.754;2023-05-20T07:32:38;99949.94;;;21.39;67.15
64616;BME280;51027;42.162;24.754;2023-05-20T07:35:04;99952.13;;;21.56;66.20
64616;BME280;51027;42.162;24.754;2023-05-20T07:37:29;99948.91;;;21.62;66.88
64616;BME280;51027;42.162;24.754;2023-05-20T07:39:55;99960.75;;;21.60;65.10
64616;BME280;51027;42.162;24.754;2023-05-20T07:42:20;99959.00;;;21.81;65.18
64616;BME280;51027;42.162;24.754;2023-05-20T07:44:46;99937.59;;;21.59;66.33
64616;BME280;51027;42.162;24.754;2023-05-20T07:47:12;99951.94;;;21.80;64.46
64616;BME280;51027;42.162;24.754;2023-05-20T07:49:37;99947.31;;;21.82;63.71
64616;BME280;51027;42.162;24.754;2023-05-20T07:52:03;99941.19;;;21.91;63.69
64616;BME280;51027;42.162;24.754;2023-05-20T07:54:29;99954.72;;;22.33;64.21
64616;BME280;51027;42.162;24.754;2023-05-20T07:56:54;99956.16;;;22.37;62.78
64616;BME280;51027;42.162;24.754;2023-05-20T07:59:20;99936.25;;;22.19;62.55
64616;BME280;51027;42.162;24.754;2023-05-20T08:01:45;99950.19;;;22.01;61.08
64616;BME280;51027;42.162;24.754;2023-05-20T08:04:11;99933.00;;;22.36;60.43
64616;BME280;51027;42.162;24.754;2023-05-20T08:06:36;99925.72;;;22.48;59.79
64616;BME280;51027;42.162;24.754;2023-05-20T08:09:02;99938.28;;;22.47;58.71
64616;BME280;51027;42.162;24.754;2023-05-20T08:11:28;99944.00;;;22.75;57.92
64616;BME280;51027;42.162;24.754;2023-05-20T08:13:53;99950.38;;;22.94;56.92
64616;BME280;51027;42.162;24.754;2023-05-20T08:16:20;99950.66;;;22.91;58.67
64616;BME280;51027;42.162;24.754;2023-05-20T08:18:46;99946.50;;;22.87;57.98
64616;BME280;51027;42.162;24.754;2023-05-20T08:21:11;99934.47;;;22.61;59.67
64616;BME280;51027;42.162;24.754;2023-05-20T08:23:38;99947.97;;;22.91;58.20
64616;BME280;51027;42.162;24.754;2023-05-20T08:26:03;99942.75;;;22.90;59.48
64616;BME280;51027;42.162;24.754;2023-05-20T08:28:29;99941.31;;;23.16;57.95
64616;BME280;51027;42.162;24.754;2023-05-20T08:30:55;99930.41;;;23.18;56.52
64616;BME280;51027;42.162;24.754;2023-05-20T08:33:22;99927.38;;;23.32;56.31
64616;BME280;51027;42.162;24.754;2023-05-20T08:35:47;99938.69;;;23.36;57.09
64616;BME280;51027;42.162;24.754;2023-05-20T08:38:13;99932.50;;;23.45;57.92
64616;BME280;51027;42.162;24.754;2023-05-20T08:40:39;99931.78;;;23.33;57.44
64616;BME280;51027;42.162;24.754;2023-05-20T08:43:04;99935.94;;;23.16;57.37
64616;BME280;51027;42.162;24.754;2023-05-20T08:45:36;99929.56;;;22.87;58.54
64616;BME280;51027;42.162;24.754;2023-05-20T08:48:02;99923.09;;;23.60;57.77
64616;BME280;51027;42.162;24.754;2023-05-20T08:50:31;99905.44;;;23.67;56.66
64616;BME280;51027;42.162;24.754;2023-05-20T08:52:57;99926.09;;;23.67;56.61
64616;BME280;51027;42.162;24.754;2023-05-20T08:55:25;99920.72;;;23.76;57.09
64616;BME280;51027;42.162;24.754;2023-05-20T08:57:53;99924.03;;;24.19;55.62
64616;BME280;51027;42.162;24.754;2023-05-20T09:00:22;99917.25;;;24.24;55.02
64616;BME280;51027;42.162;24.754;2023-05-20T09:02:51;99925.53;;;23.63;58.44
64616;BME280;51027;42.162;24.754;2023-05-20T09:05:17;99919.03;;;23.75;57.28
64616;BME280;51027;42.162;24.754;2023-05-20T09:07:43;99927.78;;;23.27;59.06
64616;BME280;51027;42.162;24.754;2023-05-20T09:10:09;99909.47;;;23.12;60.83
64616;BME280;51027;42.162;24.754;2023-05-20T09:12:35;99927.72;;;22.87;60.11
64616;BME280;51027;42.162;24.754;2023-05-20T09:15:01;99920.19;;;23.02;58.74
64616;BME280;51027;42.162;24.754;2023-05-20T09:17:26;99929.59;;;23.27;59.63
64616;BME280;51027;42.162;24.754;2023-05-20T09:19:52;99922.56;;;23.76;59.10
64616;BME280;51027;42.162;24.754;2023-05-20T09:22:25;99912.72;;;23.15;59.34
64616;BME280;51027;42.162;24.754;2023-05-20T09:24:51;99927.03;;;23.16;58.63
64616;BME280;51027;42.162;24.754;2023-05-20T09:27:18;99909.81;;;22.77;59.57
64616;BME280;51027;42.162;24.754;2023-05-20T09:29:46;99912.72;;;22.64;60.41
64616;BME280;51027;42.162;24.754;2023-05-20T09:32:15;99907.47;;;22.41;61.64
64616;BME280;51027;42.162;24.754;2023-05-20T09:34:41;99926.41;;;22.61;61.82
64616;BME280;51027;42.162;24.754;2023-05-20T09:37:08;99926.97;;;23.37;60.00
64616;BME280;51027;42.162;24.754;2023-05-20T09:39:43;99916.63;;;23.72;59.53
64616;BME280;51027;42.162;24.754;2023-05-20T09:42:19;99917.53;;;24.40;59.66
64616;BME280;51027;42.162;24.754;2023-05-20T09:44:47;99913.84;;;24.22;60.01
64616;BME280;51027;42.162;24.754;2023-05-20T09:47:15;99913.41;;;24.07;60.10
64616;BME280;51027;42.162;24.754;2023-05-20T09:49:42;99904.81;;;23.54;62.10
64616;BME280;51027;42.162;24.754;2023-05-20T09:52:09;99906.19;;;23.08;60.62
64616;BME280;51027;42.162;24.754;2023-05-20T09:54:35;99877.53;;;23.59;58.41
64616;BME280;51027;42.162;24.754;2023-05-20T09:57:02;99884.22;;;24.41;59.37
64616;BME280;51027;42.162;24.754;2023-05-20T09:59:30;99901.50;;;24.10;57.72
64616;BME280;51027;42.162;24.754;2023-05-20T10:01:56;99900.47;;;23.63;57.41
64616;BME280;51027;42.162;24.754;2023-05-20T10:04:23;99882.94;;;23.28;59.47
64616;BME280;51027;42.162;24.754;2023-05-20T10:09:53;99896.78;;;23.64;59.65
64616;BME280;51027;42.162;24.754;2023-05-20T10:12:33;99889.47;;;23.35;59.46
64616;BME280;51027;42.162;24.754;2023-05-20T10:20:25;99885.72;;;23.17;61.47
64616;BME280;51027;42.162;24.754;2023-05-20T10:22:57;99894.66;;;23.67;59.08
64616;BME280;51027;42.162;24.754;2023-05-20T10:25:26;99898.63;;;23.23;57.25
64616;BME280;51027;42.162;24.754;2023-05-20T10:28:03;99898.41;;;23.05;53.78
64616;BME280;51027;42.162;24.754;2023-05-20T10:30:29;99886.97;;;22.82;54.62
64616;BME280;51027;42.162;24.754;2023-05-20T10:32:57;99882.41;;;23.04;55.11
64616;BME280;51027;42.162;24.754;2023-05-20T10:35:26;99891.00;;;23.28;54.88
64616;BME280;51027;42.162;24.754;2023-05-20T10:37:54;99882.09;;;24.16;55.06
64616;BME280;51027;42.162;24.754;2023-05-20T10:40:30;99865.22;;;23.66;54.24
64616;BME280;51027;42.162;24.754;2023-05-20T10:42:55;99876.44;;;23.71;54.84
64616;BME280;51027;42.162;24.754;2023-05-20T10:45:28;99889.56;;;23.64;55.17
64616;BME280;51027;42.162;24.754;2023-05-20T10:47:57;99893.41;;;23.21;52.47
64616;BME280;51027;42.162;24.754;2023-05-20T10:50:36;99897.22;;;22.98;55.79
64616;BME280;51027;42.162;24.754;2023-05-20T10:53:06;99893.16;;;23.04;57.13
64616;BME280;51027;42.162;24.754;2023-05-20T10:55:35;99899.56;;;23.12;55.99
64616;BME280;51027;42.162;24.754;2023-05-20T10:58:02;99890.31;;;22.95;57.06
64616;BME280;51027;42.162;24.754;2023-05-20T11:00:27;99896.66;;;22.74;58.37
64616;BME280;51027;42.162;24.754;2023-05-20T11:02:54;99895.09;;;22.71;59.16
64616;BME280;51027;42.162;24.754;2023-05-20T11:05:20;99883.59;;;22.59;60.16
64616;BME280;51027;42.162;24.754;2023-05-20T11:07:46;99887.22;;;22.37;60.00
64616;BME280;51027;42.162;24.754;2023-05-20T11:10:11;99884.69;;;22.36;61.76
64616;BME280;51027;42.162;24.754;2023-05-20T11:12:38;99885.66;;;22.35;60.41
64616;BME280;51027;42.162;24.754;2023-05-20T11:15:04;99882.84;;;22.36;59.90
64616;BME280;51027;42.162;24.754;2023-05-20T11:17:29;99895.59;;;22.23;60.39
64616;BME280;51027;42.162;24.754;2023-05-20T11:19:55;99893.06;;;22.22;61.00
64616;BME280;51027;42.162;24.754;2023-05-20T11:22:25;99877.31;;;22.49;60.88
64616;BME280;51027;42.162;24.754;2023-05-20T11:24:50;99876.69;;;23.27;57.78
64616;BME280;51027;42.162;24.754;2023-05-20T11:27:15;99866.84;;;23.47;58.44
64616;BME280;51027;42.162;24.754;2023-05-20T11:29:41;99871.81;;;23.42;57.89
64616;BME280;51027;42.162;24.754;2023-05-20T11:32:07;99877.69;;;23.26;58.50
64616;BME280;51027;42.162;24.754;2023-05-20T11:34:34;99867.63;;;23.19;59.02
64616;BME280;51027;42.162;24.754;2023-05-20T11:37:00;99865.47;;;22.82;57.66
64616;BME280;51027;42.162;24.754;2023-05-20T11:39:29;99866.72;;;22.99;58.12
64616;BME280;51027;42.162;24.754;2023-05-20T11:41:55;99865.16;;;22.76;57.22
64616;BME280;51027;42.162;24.754;2023-05-20T11:44:21;99863.91;;;23.01;58.00
64616;BME280;51027;42.162;24.754;2023-05-20T11:46:47;99849.88;;;22.97;57.55
64616;BME280;51027;42.162;24.754;2023-05-20T11:49:13;99870.16;;;23.11;56.06
64616;BME280;51027;42.162;24.754;2023-05-20T11:51:39;99867.06;;;22.85;56.77
64616;BME280;51027;42.162;24.754;2023-05-20T11:54:06;99871.91;;;22.70;56.21
64616;BME280;51027;42.162;24.754;2023-05-20T11:56:32;99877.75;;;22.54;55.50
64616;BME280;51027;42.162;24.754;2023-05-20T11:58:59;99861.31;;;22.68;55.63
64616;BME280;51027;42.162;24.754;2023-05-20T12:01:25;99871.16;;;22.58;56.09
64616;BME280;51027;42.162;24.754;2023-05-20T12:03:52;99862.84;;;22.40;56.87
64616;BME280;51027;42.162;24.754;2023-05-20T12:06:18;99872.56;;;22.21;55.08
64616;BME280;51027;42.162;24.754;2023-05-20T12:08:43;99862.28;;;22.26;54.80
64616;BME280;51027;42.162;24.754;2023-05-20T12:11:09;99862.06;;;22.29;56.65
64616;BME280;51027;42.162;24.754;2023-05-20T12:13:34;99858.75;;;22.25;56.35
64616;BME280;51027;42.162;24.754;2023-05-20T12:16:00;99856.91;;;22.26;57.76
64616;BME280;51027;42.162;24.754;2023-05-20T12:18:25;99855.16;;;22.15;56.02
64616;BME280;51027;42.162;24.754;2023-05-20T12:20:51;99859.53;;;22.16;55.95
64616;BME280;51027;42.162;24.754;2023-05-20T12:23:16;99857.78;;;22.26;54.92
64616;BME280;51027;42.162;24.754;2023-05-20T12:25:42;99835.28;;;22.18;56.97
64616;BME280;51027;42.162;24.754;2023-05-20T12:28:09;99836.44;;;22.25;56.91
64616;BME280;51027;42.162;24.754;2023-05-20T12:30:35;99849.06;;;22.34;58.00
64616;BME280;51027;42.162;24.754;2023-05-20T12:33:00;99850.13;;;22.42;58.08
64616;BME280;51027;42.162;24.754;2023-05-20T12:38:02;99842.66;;;22.46;53.62
64616;BME280;51027;42.162;24.754;2023-05-20T12:40:27;99842.94;;;22.43;54.94
64616;BME280;51027;42.162;24.754;2023-05-20T12:42:53;99829.72;;;22.30;55.99
64616;BME280;51027;42.162;24.754;2023-05-20T12:45:18;99832.00;;;22.14;57.51
64616;BME280;51027;42.162;24.754;2023-05-20T12:47:43;99818.47;;;22.04;58.69
64616;BME280;51027;42.162;24.754;2023-05-20T12:50:09;99818.75;;;22.01;58.52